sensor_id;sensor_type;location;lat;lon;timestamp;temperature;humidity
15481;DHT22;7842;50.904;6.670;2023-07-31T00:33:03;17.40;99.90
15481;DHT22;7842;50.904;6.670;2023-07-31T00:35:28;17.40;99.90
15481;DHT22;7842;50.904;6.670;2023-07-31T00:37:55;17.40;99.90
15481;DHT22;7842;50.904;6.670;2023-07-31T00:40:21;17.50;99.90
15481;DHT22;7842;50.904;6.670;2023-07-31T00:42:47;17.50;99.90
15481;DHT22;7842;50.904;6.670;2023-07-31T00:45:12;17.50;99.90
15481;DHT22;7842;50.904;6.670;2023-07-31T00:47:38;17.50;99.90
15481;DHT22;7842;50.904;6.670;2023-07-31T00:50:05;17.50;99.90
15481;DHT22;7842;50.904;6.670;2023-07-31T00:57:23;17.60;99.90
15481;DHT22;7842;50.904;6.670;2023-07-31T00:59:48;17.50;99.90
15481;DHT22;7842;50.904;6.670;2023-07-31T01:02:14;17.50;99.90
15481;DHT22;7842;50.904;6.670;2023-07-31T01:04:41;17.60;99.90
15481;DHT22;7842;50.904;6.670;2023-07-31T01:07:15;17.50;99.90
15481;DHT22;7842;50.904;6.670;2023-07-31T01:10:04;17.40;99.90
15481;DHT22;7842;50.904;6.670;2023-07-31T01:12:31;17.50;99.90
15481;DHT22;7842;50.904;6.670;2023-07-31T01:15:08;17.50;99.90
15481;DHT22;7842;50.904;6.670;2023-07-31T01:17:41;17.50;99.90
15481;DHT22;7842;50.904;6.670;2023-07-31T01:20:17;17.60;99.90
15481;DHT22;7842;50.904;6.670;2023-07-31T01:26:05;17.60;99.90
15481;DHT22;7842;50.904;6.670;2023-07-31T01:29:00;17.60;99.90
15481;DHT22;7842;50.904;6.670;2023-07-31T01:31:29;17.50;99.90
15481;DHT22;7842;50.904;6.670;2023-07-31T01:33:59;17.60;99.90
15481;DHT22;7842;50.904;6.670;2023-07-31T01:36:25;17.50;99.90
15481;DHT22;7842;50.904;6.670;2023-07-31T01:38:51;17.50;99.90
15481;DHT22;7842;50.904;6.670;2023-07-31T01:41:17;17.50;99.90
15481;DHT22;7842;50.904;6.670;2023-07-31T01:43:44;18.70;99.90
15481;DHT22;7842;50.904;6.670;2023-07-31T01:46:09;17.50;99.90
15481;DHT22;7842;50.904;6.670;2023-07-31T01:48:35;17.70;99.90
15481;DHT22;7842;50.904;6.670;2023-07-31T01:51:02;17.50;99.90
15481;DHT22;7842;50.904;6.670;2023-07-31T01:53:28;17.60;99.90
15481;DHT22;7842;50.904;6.670;2023-07-31T01:55:54;17.50;99.90
15481;DHT22;7842;50.904;6.670;2023-07-31T01:58:19;17.60;99.90
15481;DHT22;7842;50.904;6.670;2023-07-31T02:00:45;18.30;99.90
15481;DHT22;7842;50.904;6.670;2023-07-31T02:03:11;17.60;99.90
15481;DHT22;7842;50.904;6.670;2023-07-31T02:05:47;17.90;99.90
15481;DHT22;7842;50.904;6.670;2023-07-31T02:08:13;17.60;99.90
15481;DHT22;7842;50.904;6.670;2023-07-31T02:10:39;18.80;99.90
15481;DHT22;7842;50.904;6.670;2023-07-31T02:13:04;18.70;99.90
15481;DHT22;7842;50.904;6.670;2023-07-31T02:15:30;17.60;99.90
15481;DHT22;7842;50.904;6.670;2023-07-31T02:20:22;17.70;99.90
15481;DHT22;7842;50.904;6.670;2023-07-31T02:22:48;17.60;99.90
15481;DHT22;7842;50.904;6.670;2023-07-31T02:25:13;17.60;99.90
15481;DHT22;7842;50.904;6.670;2023-07-31T02:27:39;17.60;99.90
15481;DHT22;7842;50.904;6.670;2023-07-31T02:30:05;17.70;99.90
15481;DHT22;7842;50.904;6.670;2023-07-31T02:32:31;17.60;99.90
15481;DHT22;7842;50.904;6.670;2023-07-31T02:34:56;19.20;99.90
15481;DHT22;7842;50.904;6.670;2023-07-31T02:37:22;17.70;99.90
15481;DHT22;7842;50.904;6.670;2023-07-31T02:39:48;17.80;99.90
15481;DHT22;7842;50.904;6.670;2023-07-31T02:42:14;18.70;99.90
15481;DHT22;7842;50.904;6.670;2023-07-31T02:44:40;17.70;99.90
15481;DHT22;7842;50.904;6.670;2023-07-31T02:49:31;17.80;99.90
15481;DHT22;7842;50.904;6.670;2023-07-31T02:51:57;17.80;99.90
15481;DHT22;7842;50.904;6.670;2023-07-31T02:54:23;17.80;99.90
15481;DHT22;7842;50.904;6.670;2023-07-31T02:56:48;17.80;99.90
15481;DHT22;7842;50.904;6.670;2023-07-31T02:59:14;17.80;99.90
15481;DHT22;7842;50.904;6.670;2023-07-31T03:01:40;17.70;99.90
15481;DHT22;7842;50.904;6.670;2023-07-31T03:04:06;17.80;99.90
15481;DHT22;7842;50.904;6.670;2023-07-31T03:06:32;17.70;99.90
15481;DHT22;7842;50.904;6.670;2023-07-31T03:08:57;17.80;99.90
15481;DHT22;7842;50.904;6.670;2023-07-31T03:11:23;17.80;99.90
15481;DHT22;7842;50.904;6.670;2023-07-31T03:13:48;17.80;99.90
15481;DHT22;7842;50.904;6.670;2023-07-31T03:16:14;17.80;99.90
15481;DHT22;7842;50.904;6.670;2023-07-31T03:18:40;18.30;99.90
15481;DHT22;7842;50.904;6.670;2023-07-31T03:21:05;17.90;99.90
15481;DHT22;7842;50.904;6.670;2023-07-31T03:23:31;17.80;99.90
15481;DHT22;7842;50.904;6.670;2023-07-31T03:25:58;17.80;99.90
15481;DHT22;7842;50.904;6.670;2023-07-31T03:28:24;17.80;99.90
15481;DHT22;7842;50.904;6.670;2023-07-31T03:30:50;18.50;99.90
15481;DHT22;7842;50.904;6.670;2023-07-31T03:33:16;17.80;99.90
15481;DHT22;7842;50.904;6.670;2023-07-31T03:35:41;17.80;99.90
15481;DHT22;7842;50.904;6.670;2023-07-31T03:38:07;17.80;99.90
15481;DHT22;7842;50.904;6.670;2023-07-31T03:40:33;17.70;99.90
15481;DHT22;7842;50.904;6.670;2023-07-31T03:43:00;17.80;99.90
15481;DHT22;7842;50.904;6.670;2023-07-31T03:45:26;18.50;99.90
15481;DHT22;7842;50.904;6.670;2023-07-31T03:47:51;17.60;99.90
15481;DHT22;7842;50.904;6.670;2023-07-31T03:50:17;17.70;99.90
15481;DHT22;7842;50.904;6.670;2023-07-31T03:52:42;18.70;99.90
15481;DHT22;7842;50.904;6.670;2023-07-31T03:55:08;17.60;99.90
15481;DHT22;7842;50.904;6.670;2023-07-31T03:57:37;17.80;99.90
15481;DHT22;7842;50.904;6.670;2023-07-31T04:00:03;17.50;99.90
15481;DHT22;7842;50.904;6.670;2023-07-31T04:02:29;17.50;99.90
15481;DHT22;7842;50.904;6.670;2023-07-31T04:04:54;17.60;99.90
15481;DHT22;7842;50.904;6.670;2023-07-31T04:07:20;17.80;99.90
15481;DHT22;7842;50.904;6.670;2023-07-31T04:09:45;17.50;99.90
15481;DHT22;7842;50.904;6.670;2023-07-31T04:12:11;18.70;99.90
15481;DHT22;7842;50.904;6.670;2023-07-31T04:14:37;17.60;99.90
15481;DHT22;7842;50.904;6.670;2023-07-31T04:17:02;17.60;99.90
15481;DHT22;7842;50.904;6.670;2023-07-31T04:19:28;17.60;99.90
15481;DHT22;7842;50.904;6.670;2023-07-31T04:21:54;17.70;99.90
15481;DHT22;7842;50.904;6.670;2023-07-31T04:24:19;17.70;99.90
15481;DHT22;7842;50.904;6.670;2023-07-31T04:26:50;17.70;99.90
15481;DHT22;7842;50.904;6.670;2023-07-31T04:29:16;17.80;99.90
15481;DHT22;7842;50.904;6.670;2023-07-31T04:31:42;17.80;99.90
15481;DHT22;7842;50.904;6.670;2023-07-31T04:34:07;17.80;99.90
15481;DHT22;7842;50.904;6.670;2023-07-31T04:36:34;17.80;99.90
15481;DHT22;7842;50.904;6.670;2023-07-31T04:39:00;17.80;99.90
15481;DHT22;7842;50.904;6.670;2023-07-31T04:41:25;17.90;99.90
15481;DHT22;7842;50.904;6.670;2023-07-31T04:43:51;18.10;99.90
15481;DHT22;7842;50.904;6.670;2023-07-31T04:46:17;18.00;99.90
15481;DHT22;7842;50.904;6.670;2023-07-31T04:48:42;17.90;99.90
15481;DHT22;7842;50.904;6.670;2023-07-31T04:51:08;18.00;99.90
15481;DHT22;7842;50.904;6.670;2023-07-31T04:53:37;18.00;99.90
15481;DHT22;7842;50.904;6.670;2023-07-31T04:56:02;18.00;99.90
15481;DHT22;7842;50.904;6.670;2023-07-31T04:58:28;18.00;99.90
15481;DHT22;7842;50.904;6.670;2023-07-31T05:00:54;18.10;99.90
15481;DHT22;7842;50.904;6.670;2023-07-31T05:03:19;18.10;99.90
15481;DHT22;7842;50.904;6.670;2023-07-31T05:05:45;18.10;99.90
15481;DHT22;7842;50.904;6.670;2023-07-31T05:08:11;18.10;99.90
15481;DHT22;7842;50.904;6.670;2023-07-31T05:10:36;18.10;99.90
15481;DHT22;7842;50.904;6.670;2023-07-31T05:13:02;18.10;99.90
15481;DHT22;7842;50.904;6.670;2023-07-31T05:15:28;18.10;99.90
15481;DHT22;7842;50.904;6.670;2023-07-31T05:17:54;18.20;99.90
15481;DHT22;7842;50.904;6.670;2023-07-31T05:20:20;18.20;99.90
15481;DHT22;7842;50.904;6.670;2023-07-31T05:22:46;20.70;99.90
15481;DHT22;7842;50.904;6.670;2023-07-31T05:25:11;18.80;99.90
15481;DHT22;7842;50.904;6.670;2023-07-31T05:27:37;18.50;99.90
15481;DHT22;7842;50.904;6.670;2023-07-31T05:30:03;18.20;99.90
15481;DHT22;7842;50.904;6.670;2023-07-31T05:32:29;18.30;99.90
15481;DHT22;7842;50.904;6.670;2023-07-31T05:34:55;18.20;99.90
15481;DHT22;7842;50.904;6.670;2023-07-31T05:37:21;18.20;99.90
15481;DHT22;7842;50.904;6.670;2023-07-31T05:39:46;18.20;99.90
15481;DHT22;7842;50.904;6.670;2023-07-31T05:42:12;18.20;99.90
15481;DHT22;7842;50.904;6.670;2023-07-31T05:44:37;19.00;99.90
15481;DHT22;7842;50.904;6.670;2023-07-31T05:47:03;18.20;99.90
15481;DHT22;7842;50.904;6.670;2023-07-31T05:49:30;18.20;99.90
15481;DHT22;7842;50.904;6.670;2023-07-31T05:51:55;18.20;99.90
15481;DHT22;7842;50.904;6.670;2023-07-31T05:54:21;18.20;99.90
15481;DHT22;7842;50.904;6.670;2023-07-31T05:56:46;18.20;99.90
15481;DHT22;7842;50.904;6.670;2023-07-31T05:59:16;18.20;99.90
15481;DHT22;7842;50.904;6.670;2023-07-31T06:01:42;18.20;99.90
15481;DHT22;7842;50.904;6.670;2023-07-31T06:04:07;18.20;99.90
15481;DHT22;7842;50.904;6.670;2023-07-31T06:06:33;18.20;99.90
15481;DHT22;7842;50.904;6.670;2023-07-31T06:08:58;18.50;99.90
15481;DHT22;7842;50.904;6.670;2023-07-31T06:11:24;18.10;99.90
15481;DHT22;7842;50.904;6.670;2023-07-31T06:13:50;18.10;99.90
15481;DHT22;7842;50.904;6.670;2023-07-31T06:16:15;18.00;99.90
15481;DHT22;7842;50.904;6.670;2023-07-31T06:18:42;18.00;99.90
15481;DHT22;7842;50.904;6.670;2023-07-31T06:21:08;18.00;99.90
15481;DHT22;7842;50.904;6.670;2023-07-31T06:23:34;18.00;99.90
15481;DHT22;7842;50.904;6.670;2023-07-31T06:26:00;18.00;99.90
15481;DHT22;7842;50.904;6.670;2023-07-31T06:28:29;17.90;99.90
15481;DHT22;7842;50.904;6.670;2023-07-31T06:30:55;18.00;99.90
15481;DHT22;7842;50.904;6.670;2023-07-31T06:33:21;18.10;99.90
15481;DHT22;7842;50.904;6.670;2023-07-31T06:35:46;18.00;99.90
15481;DHT22;7842;50.904;6.670;2023-07-31T06:38:12;19.40;99.90
15481;DHT22;7842;50.904;6.670;2023-07-31T06:40:38;18.00;99.90
15481;DHT22;7842;50.904;6.670;2023-07-31T06:43:03;18.00;99.90
15481;DHT22;7842;50.904;6.670;2023-07-31T06:45:34;18.10;99.90
15481;DHT22;7842;50.904;6.670;2023-07-31T06:48:01;18.20;99.90
15481;DHT22;7842;50.904;6.670;2023-07-31T06:50:30;18.20;99.90
15481;DHT22;7842;50.904;6.670;2023-07-31T06:52:56;18.30;99.90
15481;DHT22;7842;50.904;6.670;2023-07-31T06:55:22;18.40;99.90
15481;DHT22;7842;50.904;6.670;2023-07-31T06:57:49;19.00;99.90
15481;DHT22;7842;50.904;6.670;2023-07-31T07:00:16;18.50;99.90
15481;DHT22;7842;50.904;6.670;2023-07-31T07:02:41;18.60;99.90
15481;DHT22;7842;50.904;6.670;2023-07-31T07:05:07;18.60;99.90
15481;DHT22;7842;50.904;6.670;2023-07-31T07:07:36;18.60;99.90
15481;DHT22;7842;50.904;6.670;2023-07-31T07:10:03;18.60;99.90
15481;DHT22;7842;50.904;6.670;2023-07-31T07:12:30;18.60;99.90
15481;DHT22;7842;50.904;6.670;2023-07-31T07:14:55;18.70;99.90
15481;DHT22;7842;50.904;6.670;2023-07-31T07:17:23;18.60;99.90
15481;DHT22;7842;50.904;6.670;2023-07-31T07:19:48;18.60;99.90
15481;DHT22;7842;50.904;6.670;2023-07-31T07:22:14;18.60;99.90
15481;DHT22;7842;50.904;6.670;2023-07-31T07:24:40;18.50;99.90
15481;DHT22;7842;50.904;6.670;2023-07-31T07:27:06;18.50;99.90
15481;DHT22;7842;50.904;6.670;2023-07-31T07:29:33;18.50;99.90
15481;DHT22;7842;50.904;6.670;2023-07-31T07:31:59;18.40;99.90
15481;DHT22;7842;50.904;6.670;2023-07-31T07:34:28;18.40;99.90
15481;DHT22;7842;50.904;6.670;2023-07-31T07:36:54;18.40;99.90
15481;DHT22;7842;50.904;6.670;2023-07-31T07:39:20;18.30;99.90
15481;DHT22;7842;50.904;6.670;2023-07-31T07:41:46;18.50;99.90
15481;DHT22;7842;50.904;6.670;2023-07-31T07:44:13;18.30;99.90
15481;DHT22;7842;50.904;6.670;2023-07-31T07:46:38;18.20;99.90
15481;DHT22;7842;50.904;6.670;2023-07-31T07:49:04;18.10;99.90
15481;DHT22;7842;50.904;6.670;2023-07-31T07:51:30;18.10;99.90
15481;DHT22;7842;50.904;6.670;2023-07-31T07:53:57;18.00;99.90
15481;DHT22;7842;50.904;6.670;2023-07-31T07:56:23;18.10;99.90
15481;DHT22;7842;50.904;6.670;2023-07-31T07:58:50;17.90;99.90
15481;DHT22;7842;50.904;6.670;2023-07-31T08:01:16;17.80;99.90
15481;DHT22;7842;50.904;6.670;2023-07-31T08:03:41;19.10;99.90
15481;DHT22;7842;50.904;6.670;2023-07-31T08:06:07;17.80;99.90
15481;DHT22;7842;50.904;6.670;2023-07-31T08:08:37;17.80;99.90
15481;DHT22;7842;50.904;6.670;2023-07-31T08:11:03;17.80;99.90
15481;DHT22;7842;50.904;6.670;2023-07-31T08:13:29;17.80;99.90
15481;DHT22;7842;50.904;6.670;2023-07-31T08:15:55;18.60;99.90
15481;DHT22;7842;50.904;6.670;2023-07-31T08:18:21;17.80;99.90
15481;DHT22;7842;50.904;6.670;2023-07-31T08:20:46;17.80;99.90
15481;DHT22;7842;50.904;6.670;2023-07-31T08:23:12;18.60;99.90
15481;DHT22;7842;50.904;6.670;2023-07-31T08:25:38;18.00;99.90
15481;DHT22;7842;50.904;6.670;2023-07-31T08:28:05;18.00;99.90
15481;DHT22;7842;50.904;6.670;2023-07-31T08:30:31;18.10;99.90
15481;DHT22;7842;50.904;6.670;2023-07-31T08:32:57;18.80;99.90
15481;DHT22;7842;50.904;6.670;2023-07-31T08:35:26;19.20;99.90
15481;DHT22;7842;50.904;6.670;2023-07-31T08:37:53;18.30;99.90
15481;DHT22;7842;50.904;6.670;2023-07-31T08:40:19;18.50;99.90
15481;DHT22;7842;50.904;6.670;2023-07-31T08:42:50;18.40;99.90
15481;DHT22;7842;50.904;6.670;2023-07-31T08:45:17;19.00;99.90
15481;DHT22;7842;50.904;6.670;2023-07-31T08:47:49;18.40;99.90
15481;DHT22;7842;50.904;6.670;2023-07-31T08:50:17;18.40;99.90
15481;DHT22;7842;50.904;6.670;2023-07-31T08:52:43;18.40;99.90
15481;DHT22;7842;50.904;6.670;2023-07-31T08:55:09;18.40;99.90
15481;DHT22;7842;50.904;6.670;2023-07-31T08:57:36;18.40;99.90
15481;DHT22;7842;50.904;6.670;2023-07-31T09:00:06;18.40;99.90
15481;DHT22;7842;50.904;6.670;2023-07-31T09:03:01;18.40;99.90
15481;DHT22;7842;50.904;6.670;2023-07-31T09:05:29;18.40;99.90
15481;DHT22;7842;50.904;6.670;2023-07-31T09:07:56;18.30;99.90
15481;DHT22;7842;50.904;6.670;2023-07-31T09:10:22;18.20;99.90
15481;DHT22;7842;50.904;6.670;2023-07-31T09:12:50;18.30;99.90
15481;DHT22;7842;50.904;6.670;2023-07-31T09:15:16;18.30;99.90
15481;DHT22;7842;50.904;6.670;2023-07-31T09:17:42;18.50;99.90
15481;DHT22;7842;50.904;6.670;2023-07-31T09:22:39;19.00;99.90
15481;DHT22;7842;50.904;6.670;2023-07-31T09:25:25;19.30;99.90
15481;DHT22;7842;50.904;6.670;2023-07-31T09:27:52;19.40;99.90
15481;DHT22;7842;50.904;6.670;2023-07-31T09:30:18;19.40;99.90
15481;DHT22;7842;50.904;6.670;2023-07-31T09:32:45;19.40;99.90
15481;DHT22;7842;50.904;6.670;2023-07-31T09:35:18;19.40;99.90
15481;DHT22;7842;50.904;6.670;2023-07-31T09:37:55;19.50;99.90
15481;DHT22;7842;50.904;6.670;2023-07-31T09:42:53;19.90;99.90
15481;DHT22;7842;50.904;6.670;2023-07-31T09:45:19;20.10;99.90
15481;DHT22;7842;50.904;6.670;2023-07-31T09:47:47;20.20;99.90
15481;DHT22;7842;50.904;6.670;2023-07-31T09:50:16;20.30;99.90
15481;DHT22;7842;50.904;6.670;2023-07-31T09:52:43;20.40;99.90
15481;DHT22;7842;50.904;6.670;2023-07-31T09:55:09;20.50;99.90
15481;DHT22;7842;50.904;6.670;2023-07-31T09:57:42;20.50;99.90
15481;DHT22;7842;50.904;6.670;2023-07-31T10:00:09;20.50;99.90
15481;DHT22;7842;50.904;6.670;2023-07-31T10:02:35;20.60;99.90
15481;DHT22;7842;50.904;6.670;2023-07-31T10:14:51;20.50;99.90
15481;DHT22;7842;50.904;6.670;2023-07-31T10:17:18;20.70;99.90
15481;DHT22;7842;50.904;6.670;2023-07-31T10:19:45;20.50;99.90
15481;DHT22;7842;50.904;6.670;2023-07-31T10:22:11;20.40;99.90
15481;DHT22;7842;50.904;6.670;2023-07-31T10:24:37;20.40;99.90
15481;DHT22;7842;50.904;6.670;2023-07-31T10:27:04;20.40;99.90
15481;DHT22;7842;50.904;6.670;2023-07-31T10:29:29;20.30;99.90
15481;DHT22;7842;50.904;6.670;2023-07-31T10:31:57;20.40;99.90
15481;DHT22;7842;50.904;6.670;2023-07-31T10:34:23;20.40;99.90
15481;DHT22;7842;50.904;6.670;2023-07-31T10:36:49;20.30;99.90
15481;DHT22;7842;50.904;6.670;2023-07-31T10:39:37;20.40;99.90
15481;DHT22;7842;50.904;6.670;2023-07-31T10:42:12;20.40;99.90
15481;DHT22;7842;50.904;6.670;2023-07-31T10:44:43;20.30;99.90
15481;DHT22;7842;50.904;6.670;2023-07-31T10:47:08;20.30;99.90
15481;DHT22;7842;50.904;6.670;2023-07-31T10:49:34;20.20;99.90
15481;DHT22;7842;50.904;6.670;2023-07-31T10:52:03;20.20;99.90
15481;DHT22;7842;50.904;6.670;2023-07-31T10:54:29;20.00;99.90
15481;DHT22;7842;50.904;6.670;2023-07-31T10:56:54;20.00;99.90
15481;DHT22;7842;50.904;6.670;2023-07-31T10:59:26;20.00;99.90
15481;DHT22;7842;50.904;6.670;2023-07-31T11:01:55;20.10;99.90
15481;DHT22;7842;50.904;6.670;2023-07-31T11:04:25;20.00;99.90
15481;DHT22;7842;50.904;6.670;2023-07-31T11:06:57;20.00;99.90
15481;DHT22;7842;50.904;6.670;2023-07-31T11:09:34;20.20;99.90
15481;DHT22;7842;50.904;6.670;2023-07-31T11:12:00;20.60;99.90
15481;DHT22;7842;50.904;6.670;2023-07-31T11:14:26;20.80;99.90
15481;DHT22;7842;50.904;6.670;2023-07-31T11:16:52;20.90;99.90
15481;DHT22;7842;50.904;6.670;2023-07-31T11:19:24;20.90;99.90
15481;DHT22;7842;50.904;6.670;2023-07-31T11:21:51;21.20;99.90
15481;DHT22;7842;50.904;6.670;2023-07-31T11:24:18;21.20;99.90
15481;DHT22;7842;50.904;6.670;2023-07-31T11:26:51;21.20;99.90
15481;DHT22;7842;50.904;6.670;2023-07-31T11:29:18;21.20;99.90
15481;DHT22;7842;50.904;6.670;2023-07-31T11:31:46;21.30;99.90
15481;DHT22;7842;50.904;6.670;2023-07-31T11:34:13;21.40;99.90
15481;DHT22;7842;50.904;6.670;2023-07-31T11:36:38;21.40;99.90
15481;DHT22;7842;50.904;6.670;2023-07-31T11:39:05;21.40;99.90
15481;DHT22;7842;50.904;6.670;2023-07-31T11:41:32;21.60;99.90
15481;DHT22;7842;50.904;6.670;2023-07-31T11:44:00;21.70;99.90
15481;DHT22;7842;50.904;6.670;2023-07-31T11:46:27;21.80;99.90
15481;DHT22;7842;50.904;6.670;2023-07-31T11:48:59;21.70;99.90
15481;DHT22;7842;50.904;6.670;2023-07-31T11:51:26;21.50;99.90
15481;DHT22;7842;50.904;6.670;2023-07-31T11:53:57;21.30;99.90
15481;DHT22;7842;50.904;6.670;2023-07-31T11:56:24;21.00;99.90
15481;DHT22;7842;50.904;6.670;2023-07-31T11:58:54;21.00;99.90
15481;DHT22;7842;50.904;6.670;2023-07-31T12:01:21;21.00;99.90
15481;DHT22;7842;50.904;6.670;2023-07-31T12:03:48;20.90;99.90
15481;DHT22;7842;50.904;6.670;2023-07-31T12:06:13;20.90;99.90
15481;DHT22;7842;50.904;6.670;2023-07-31T12:08:39;20.90;99.90
15481;DHT22;7842;50.904;6.670;2023-07-31T12:11:07;20.90;99.90
15481;DHT22;7842;50.904;6.670;2023-07-31T12:13:35;20.80;99.90
15481;DHT22;7842;50.904;6.670;2023-07-31T12:16:01;20.70;99.90
15481;DHT22;7842;50.904;6.670;2023-07-31T12:18:33;20.70;99.90
15481;DHT22;7842;50.904;6.670;2023-07-31T12:21:00;20.60;99.90
15481;DHT22;7842;50.904;6.670;2023-07-31T12:23:28;20.60;99.90
15481;DHT22;7842;50.904;6.670;2023-07-31T12:26:08;20.60;99.90
15481;DHT22;7842;50.904;6.670;2023-07-31T12:28:44;20.60;99.90
15481;DHT22;7842;50.904;6.670;2023-07-31T12:31:14;20.60;99.90
15481;DHT22;7842;50.904;6.670;2023-07-31T12:33:42;20.60;99.90
15481;DHT22;7842;50.904;6.670;2023-07-31T12:36:13;20.60;99.90
15481;DHT22;7842;50.904;6.670;2023-07-31T12:38:38;20.60;99.90
15481;DHT22;7842;50.904;6.670;2023-07-31T12:41:04;20.60;99.90
15481;DHT22;7842;50.904;6.670;2023-07-31T12:43:32;20.60;99.90
15481;DHT22;7842;50.904;6.670;2023-07-31T12:45:58;20.60;99.90
15481;DHT22;7842;50.904;6.670;2023-07-31T12:48:24;21.50;99.90
15481;DHT22;7842;50.904;6.670;2023-07-31T12:50:50;20.60;99.90
15481;DHT22;7842;50.904;6.670;2023-07-31T12:53:15;20.70;99.90
15481;DHT22;7842;50.904;6.670;2023-07-31T12:55:41;20.70;99.90
15481;DHT22;7842;50.904;6.670;2023-07-31T12:58:07;22.30;99.90
15481;DHT22;7842;50.904;6.670;2023-07-31T13:00:32;20.70;99.90
15481;DHT22;7842;50.904;6.670;2023-07-31T13:02:59;20.70;99.90
15481;DHT22;7842;50.904;6.670;2023-07-31T13:05:26;20.60;99.90
15481;DHT22;7842;50.904;6.670;2023-07-31T13:07:52;20.60;99.90
15481;DHT22;7842;50.904;6.670;2023-07-31T13:10:18;20.60;99.90
15481;DHT22;7842;50.904;6.670;2023-07-31T13:12:43;20.70;99.90
15481;DHT22;7842;50.904;6.670;2023-07-31T13:15:09;20.80;99.90
15481;DHT22;7842;50.904;6.670;2023-07-31T13:17:35;20.90;99.90
15481;DHT22;7842;50.904;6.670;2023-07-31T13:20:01;21.00;99.90
15481;DHT22;7842;50.904;6.670;2023-07-31T13:22:27;21.20;99.90
15481;DHT22;7842;50.904;6.670;2023-07-31T13:24:53;21.30;99.90
15481;DHT22;7842;50.904;6.670;2023-07-31T13:27:18;21.40;99.90
15481;DHT22;7842;50.904;6.670;2023-07-31T13:29:50;21.50;99.90
15481;DHT22;7842;50.904;6.670;2023-07-31T13:32:20;21.40;99.90
15481;DHT22;7842;50.904;6.670;2023-07-31T13:34:46;21.40;99.90
15481;DHT22;7842;50.904;6.670;2023-07-31T13:37:12;21.50;99.90
15481;DHT22;7842;50.904;6.670;2023-07-31T13:39:38;21.60;99.90
15481;DHT22;7842;50.904;6.670;2023-07-31T13:42:05;21.60;99.90
15481;DHT22;7842;50.904;6.670;2023-07-31T13:44:39;21.80;99.90
15481;DHT22;7842;50.904;6.670;2023-07-31T13:47:05;21.90;99.90
15481;DHT22;7842;50.904;6.670;2023-07-31T13:49:33;22.10;99.90
15481;DHT22;7842;50.904;6.670;2023-07-31T13:52:00;22.40;99.90
15481;DHT22;7842;50.904;6.670;2023-07-31T13:54:25;22.60;99.90
15481;DHT22;7842;50.904;6.670;2023-07-31T13:56:52;22.70;99.90
15481;DHT22;7842;50.904;6.670;2023-07-31T13:59:18;22.70;99.90
15481;DHT22;7842;50.904;6.670;2023-07-31T14:01:44;22.80;99.90
15481;DHT22;7842;50.904;6.670;2023-07-31T14:04:10;22.60;99.90
15481;DHT22;7842;50.904;6.670;2023-07-31T14:06:36;22.40;99.90
15481;DHT22;7842;50.904;6.670;2023-07-31T14:09:02;22.20;99.90
15481;DHT22;7842;50.904;6.670;2023-07-31T14:11:28;22.00;99.90
15481;DHT22;7842;50.904;6.670;2023-07-31T14:13:53;21.90;99.90
15481;DHT22;7842;50.904;6.670;2023-07-31T14:16:19;21.70;99.90
15481;DHT22;7842;50.904;6.670;2023-07-31T14:18:45;21.50;99.90
15481;DHT22;7842;50.904;6.670;2023-07-31T14:21:13;21.40;99.90
15481;DHT22;7842;50.904;6.670;2023-07-31T14:23:39;21.40;99.90
15481;DHT22;7842;50.904;6.670;2023-07-31T14:26:04;21.40;99.90
15481;DHT22;7842;50.904;6.670;2023-07-31T14:28:30;21.50;99.90
15481;DHT22;7842;50.904;6.670;2023-07-31T14:30:56;21.60;99.90
15481;DHT22;7842;50.904;6.670;2023-07-31T14:33:21;21.60;99.90
15481;DHT22;7842;50.904;6.670;2023-07-31T14:35:47;21.60;99.90
15481;DHT22;7842;50.904;6.670;2023-07-31T14:38:12;21.60;99.90
15481;DHT22;7842;50.904;6.670;2023-07-31T14:40:38;21.60;99.90
15481;DHT22;7842;50.904;6.670;2023-07-31T14:43:04;21.60;99.90
15481;DHT22;7842;50.904;6.670;2023-07-31T14:45:29;21.60;99.90
15481;DHT22;7842;50.904;6.670;2023-07-31T14:47:55;21.50;99.90
15481;DHT22;7842;50.904;6.670;2023-07-31T15:17:12;21.00;99.90
15481;DHT22;7842;50.904;6.670;2023-07-31T15:19:37;21.00;99.90
15481;DHT22;7842;50.904;6.670;2023-07-31T15:22:03;20.90;99.90
15481;DHT22;7842;50.904;6.670;2023-07-31T15:24:29;20.90;99.90
15481;DHT22;7842;50.904;6.670;2023-07-31T15:26:55;20.90;99.90
15481;DHT22;7842;50.904;6.670;2023-07-31T15:29:20;20.80;99.90
15481;DHT22;7842;50.904;6.670;2023-07-31T15:31:47;20.80;99.90
15481;DHT22;7842;50.904;6.670;2023-07-31T15:34:14;20.80;99.90
15481;DHT22;7842;50.904;6.670;2023-07-31T15:36:40;20.70;99.90
15481;DHT22;7842;50.904;6.670;2023-07-31T15:39:05;20.70;99.90
15481;DHT22;7842;50.904;6.670;2023-07-31T15:41:34;20.60;99.90
15481;DHT22;7842;50.904;6.670;2023-07-31T15:44:00;20.50;99.90
15481;DHT22;7842;50.904;6.670;2023-07-31T15:46:25;20.30;99.90
15481;DHT22;7842;50.904;6.670;2023-07-31T15:48:51;20.10;99.90
15481;DHT22;7842;50.904;6.670;2023-07-31T15:51:19;20.00;99.90
15481;DHT22;7842;50.904;6.670;2023-07-31T15:53:44;19.80;99.90
15481;DHT22;7842;50.904;6.670;2023-07-31T15:56:10;19.80;99.90
15481;DHT22;7842;50.904;6.670;2023-07-31T15:58:36;19.70;99.90
15481;DHT22;7842;50.904;6.670;2023-07-31T16:01:02;19.70;99.90
15481;DHT22;7842;50.904;6.670;2023-07-31T16:03:27;19.70;99.90
15481;DHT22;7842;50.904;6.670;2023-07-31T16:05:53;19.70;99.90
15481;DHT22;7842;50.904;6.670;2023-07-31T16:08:18;19.70;99.90
15481;DHT22;7842;50.904;6.670;2023-07-31T16:10:44;19.70;99.90
15481;DHT22;7842;50.904;6.670;2023-07-31T16:13:10;19.70;99.90
15481;DHT22;7842;50.904;6.670;2023-07-31T16:15:36;19.60;99.90
15481;DHT22;7842;50.904;6.670;2023-07-31T16:18:01;19.50;99.90
15481;DHT22;7842;50.904;6.670;2023-07-31T16:20:27;19.40;99.90
15481;DHT22;7842;50.904;6.670;2023-07-31T16:22:54;19.30;99.90
15481;DHT22;7842;50.904;6.670;2023-07-31T16:25:20;19.20;99.90
15481;DHT22;7842;50.904;6.670;2023-07-31T16:27:45;19.10;99.90
15481;DHT22;7842;50.904;6.670;2023-07-31T16:30:11;19.00;99.90
15481;DHT22;7842;50.904;6.670;2023-07-31T16:32:37;19.00;99.90
15481;DHT22;7842;50.904;6.670;2023-07-31T16:35:03;19.00;99.90
15481;DHT22;7842;50.904;6.670;2023-07-31T16:37:29;18.90;99.90
15481;DHT22;7842;50.904;6.670;2023-07-31T16:39:54;19.00;99.90
15481;DHT22;7842;50.904;6.670;2023-07-31T16:42:21;18.90;99.90
15481;DHT22;7842;50.904;6.670;2023-07-31T16:44:47;18.80;99.90
15481;DHT22;7842;50.904;6.670;2023-07-31T16:47:15;19.00;99.90
15481;DHT22;7842;50.904;6.670;2023-07-31T16:49:41;19.00;99.90
15481;DHT22;7842;50.904;6.670;2023-07-31T16:52:07;18.90;99.90
15481;DHT22;7842;50.904;6.670;2023-07-31T16:54:33;18.90;99.90
15481;DHT22;7842;50.904;6.670;2023-07-31T16:56:59;18.80;99.90
15481;DHT22;7842;50.904;6.670;2023-07-31T16:59:25;18.80;99.90
15481;DHT22;7842;50.904;6.670;2023-07-31T17:01:50;18.80;99.90
15481;DHT22;7842;50.904;6.670;2023-07-31T17:04:16;18.80;99.90
15481;DHT22;7842;50.904;6.670;2023-07-31T17:06:42;18.80;99.90
15481;DHT22;7842;50.904;6.670;2023-07-31T17:09:08;18.70;99.90